Maran Pythia — SVAQ5 — position and weather

sailwx.info

Track history (hours):
 
Tides and Currents Weather Stations Pressure Air Temp Water Temp Dewpoint Dewpoint Depression Visibility Wind Speed Wind Dir Waves Ship Positions

Maran Pythia

Last reported at 2016-Feb-04 21:33 UTC. Time now 2016-Feb-10 10:50 UTC.
Position N 29°35' W 093°17'.

Length 275 m; draft 9.6 m.

Type: Tanker. MMSI: 240893000.

Date/timePositionNaut miles runAvg speedWind from/ knotsBaromVisibWave heightAir tempDewpointWater temp
2016-Feb-04 21:33N 29°35' W 093°17'1211.9
2016-Feb-04 20:33N 29°46' W 093°21'7 7.5
2016-Feb-04 19:34N 29°54' W 093°21'7 7.0
2016-Feb-04 18:34N 30°01' W 093°20'7 7.1
2016-Feb-04 17:34N 30°08' W 093°20'3 2.8
2016-Feb-04 16:33N 30°11' W 093°19'1 1.2
2016-Feb-04 15:33N 30°10' W 093°20'0 0.0
2016-Feb-04 14:33N 30°10' W 093°20'0 0.0
2016-Feb-04 13:33N 30°10' W 093°20'0 0.0
2016-Feb-04 12:33N 30°10' W 093°20'0 0.0
2016-Feb-04 11:33N 30°10' W 093°20'0 0.0
2016-Feb-04 10:33N 30°10' W 093°20'0 0.0
2016-Feb-04 09:33N 30°10' W 093°20'0 0.0
2016-Feb-04 08:33N 30°10' W 093°20'0 0.0
2016-Feb-04 07:33N 30°10' W 093°20'0 0.0
2016-Feb-04 06:33N 30°10' W 093°20'0 0.0
2016-Feb-04 05:33N 30°10' W 093°20'0 0.0
2016-Feb-04 04:33N 30°10' W 093°20'0 0.0
2016-Feb-04 03:33N 30°10' W 093°20'0 0.0
2016-Feb-04 02:33N 30°10' W 093°20'0 0.0
2016-Feb-04 01:33N 30°10' W 093°20'0 0.0
2016-Feb-04 00:33N 30°09' W 093°20'0 0.0
2016-Feb-03 23:33N 30°10' W 093°20'0 0.0
2016-Feb-03 22:33N 30°10' W 093°20'0 0.0
2016-Feb-03 21:33N 30°10' W 093°20'0 0.0
2016-Feb-03 20:33N 30°10' W 093°20'0 0.0
2016-Feb-03 19:33N 30°10' W 093°20'0 0.0
2016-Feb-03 18:33N 30°10' W 093°20'0 0.0
2016-Feb-03 17:33N 30°10' W 093°20'0 0.0
2016-Feb-03 16:33N 30°10' W 093°20'0 0.0
2016-Feb-03 15:33N 30°10' W 093°20'0 0.0
2016-Feb-03 14:33N 30°10' W 093°20'0 0.0
2016-Feb-03 13:33N 30°10' W 093°20'0 0.0
2016-Feb-03 12:33N 30°10' W 093°20'0 0.0
2016-Feb-03 11:33N 30°10' W 093°20'0 0.0
2016-Feb-03 10:33N 30°10' W 093°20'0 0.0
2016-Feb-03 09:33N 30°10' W 093°20'0 0.4
2016-Feb-03 08:33N 30°09' W 093°20'4 4.4
2016-Feb-03 07:33N 30°05' W 093°20'6 6.3
2016-Feb-03 06:34N 29°59' W 093°20'8 8.1
2016-Feb-03 05:33N 29°50' W 093°21'8 8.3
2016-Feb-03 04:33N 29°42' W 093°20'1010.4
2016-Feb-03 03:33N 29°33' W 093°15'1010.3
2016-Feb-03 02:33N 29°23' W 093°13'7 7.2
2016-Feb-03 01:33N 29°15' W 093°14'8 8.4
2016-Feb-03 00:33N 29°07' W 093°13'9 8.6
2016-Feb-02 23:33N 28°58' W 093°14'2 0.1
2016-Feb-02 03:21N 28°57' W 093°16'0 0.0
2016-Feb-02 00:24N 28°57' W 093°16'0 0.0
2016-Feb-01 23:21N 28°57' W 093°16'0 0.0
2016-Feb-01 18:27N 28°57' W 093°16'0 0.0
2016-Jan-30 17:33N 28°57' W 093°16'0 0.0
2016-Jan-30 08:27N 28°57' W 093°16'0 0.0
2016-Jan-30 07:33N 28°57' W 093°16'0 0.0
2016-Jan-30 06:30N 28°57' W 093°16'0 0.0
2016-Jan-30 05:30N 28°57' W 093°16'0 0.0
2016-Jan-30 04:21N 28°57' W 093°16'0 0.0
2016-Jan-30 03:21N 28°57' W 093°16'0 0.0
2016-Jan-30 00:27N 28°57' W 093°16'0 0.0
2016-Jan-29 23:30N 28°57' W 093°16'0 0.0
2016-Jan-29 22:33N 28°57' W 093°16'0 0.0
2016-Jan-29 19:33N 28°57' W 093°16'0 0.1
2016-Jan-29 18:27N 28°57' W 093°16'0 0.0
2016-Jan-29 17:30N 28°57' W 093°16'0 0.0
2016-Jan-29 16:33N 28°57' W 093°16'0 0.0
2016-Jan-29 15:33N 28°57' W 093°16'0 0.0
2016-Jan-29 14:33N 28°57' W 093°16'0 0.0
2016-Jan-29 13:30N 28°57' W 093°16'0 0.0
2016-Jan-29 12:21N 28°57' W 093°16'0 0.0
2016-Jan-29 10:33N 28°57' W 093°16'0 0.0
2016-Jan-29 09:30N 28°57' W 093°16'0 0.0
2016-Jan-29 08:18N 28°57' W 093°16'0 0.0
2016-Jan-29 07:30N 28°57' W 093°16'0 0.0
2016-Jan-29 06:33N 28°57' W 093°16'0 0.0
2016-Jan-29 05:27N 28°57' W 093°16'0 0.0
2016-Jan-27 11:30N 28°57' W 093°16'  
Track history (hours):
 
Tides and Currents Weather Stations Pressure Air Temp Water Temp Dewpoint Dewpoint Depression Visibility Wind Speed Wind Dir Waves Ship Positions

Maran Pythia

Last reported at 2016-Feb-04 21:33 UTC. Time now 2016-Feb-10 10:50 UTC.
Position N 29°35' W 093°17'.

Length 275 m; draft 9.6 m.

Type: Tanker. MMSI: 240893000.

Date/timePositionNaut miles runAvg speedWind from/ knotsBaromVisibWave heightAir tempDewpointWater temp
2016-Feb-04 21:33N 29°35' W 093°17'1211.9
2016-Feb-04 20:33N 29°46' W 093°21'7 7.5
2016-Feb-04 19:34N 29°54' W 093°21'7 7.0
2016-Feb-04 18:34N 30°01' W 093°20'7 7.1
2016-Feb-04 17:34N 30°08' W 093°20'3 2.8
2016-Feb-04 16:33N 30°11' W 093°19'1 1.2
2016-Feb-04 15:33N 30°10' W 093°20'0 0.0
2016-Feb-04 14:33N 30°10' W 093°20'0 0.0
2016-Feb-04 13:33N 30°10' W 093°20'0 0.0
2016-Feb-04 12:33N 30°10' W 093°20'0 0.0
2016-Feb-04 11:33N 30°10' W 093°20'0 0.0
2016-Feb-04 10:33N 30°10' W 093°20'0 0.0
2016-Feb-04 09:33N 30°10' W 093°20'0 0.0
2016-Feb-04 08:33N 30°10' W 093°20'0 0.0
2016-Feb-04 07:33N 30°10' W 093°20'0 0.0
2016-Feb-04 06:33N 30°10' W 093°20'0 0.0
2016-Feb-04 05:33N 30°10' W 093°20'0 0.0
2016-Feb-04 04:33N 30°10' W 093°20'0 0.0
2016-Feb-04 03:33N 30°10' W 093°20'0 0.0
2016-Feb-04 02:33N 30°10' W 093°20'0 0.0
2016-Feb-04 01:33N 30°10' W 093°20'0 0.0
2016-Feb-04 00:33N 30°09' W 093°20'0 0.0
2016-Feb-03 23:33N 30°10' W 093°20'0 0.0
2016-Feb-03 22:33N 30°10' W 093°20'0 0.0
2016-Feb-03 21:33N 30°10' W 093°20'0 0.0
2016-Feb-03 20:33N 30°10' W 093°20'0 0.0
2016-Feb-03 19:33N 30°10' W 093°20'0 0.0
2016-Feb-03 18:33N 30°10' W 093°20'0 0.0
2016-Feb-03 17:33N 30°10' W 093°20'0 0.0
2016-Feb-03 16:33N 30°10' W 093°20'0 0.0
2016-Feb-03 15:33N 30°10' W 093°20'0 0.0
2016-Feb-03 14:33N 30°10' W 093°20'0 0.0
2016-Feb-03 13:33N 30°10' W 093°20'0 0.0
2016-Feb-03 12:33N 30°10' W 093°20'0 0.0
2016-Feb-03 11:33N 30°10' W 093°20'0 0.0
2016-Feb-03 10:33N 30°10' W 093°20'0 0.0
2016-Feb-03 09:33N 30°10' W 093°20'0 0.4
2016-Feb-03 08:33N 30°09' W 093°20'4 4.4
2016-Feb-03 07:33N 30°05' W 093°20'6 6.3
2016-Feb-03 06:34N 29°59' W 093°20'8 8.1
2016-Feb-03 05:33N 29°50' W 093°21'8 8.3
2016-Feb-03 04:33N 29°42' W 093°20'1010.4
2016-Feb-03 03:33N 29°33' W 093°15'1010.3
2016-Feb-03 02:33N 29°23' W 093°13'7 7.2
2016-Feb-03 01:33N 29°15' W 093°14'8 8.4
2016-Feb-03 00:33N 29°07' W 093°13'9 8.6
2016-Feb-02 23:33N 28°58' W 093°14'2 0.1
2016-Feb-02 03:21N 28°57' W 093°16'0 0.0
2016-Feb-02 00:24N 28°57' W 093°16'0 0.0
2016-Feb-01 23:21N 28°57' W 093°16'0 0.0
2016-Feb-01 18:27N 28°57' W 093°16'0 0.0
2016-Jan-30 17:33N 28°57' W 093°16'0 0.0
2016-Jan-30 08:27N 28°57' W 093°16'0 0.0
2016-Jan-30 07:33N 28°57' W 093°16'0 0.0
2016-Jan-30 06:30N 28°57' W 093°16'0 0.0
2016-Jan-30 05:30N 28°57' W 093°16'0 0.0
2016-Jan-30 04:21N 28°57' W 093°16'0 0.0
2016-Jan-30 03:21N 28°57' W 093°16'0 0.0
2016-Jan-30 00:27N 28°57' W 093°16'0 0.0
2016-Jan-29 23:30N 28°57' W 093°16'0 0.0
2016-Jan-29 22:33N 28°57' W 093°16'0 0.0
2016-Jan-29 19:33N 28°57' W 093°16'0 0.1
2016-Jan-29 18:27N 28°57' W 093°16'0 0.0
2016-Jan-29 17:30N 28°57' W 093°16'0 0.0
2016-Jan-29 16:33N 28°57' W 093°16'0 0.0
2016-Jan-29 15:33N 28°57' W 093°16'0 0.0
2016-Jan-29 14:33N 28°57' W 093°16'0 0.0
2016-Jan-29 13:30N 28°57' W 093°16'0 0.0
2016-Jan-29 12:21N 28°57' W 093°16'0 0.0
2016-Jan-29 10:33N 28°57' W 093°16'0 0.0
2016-Jan-29 09:30N 28°57' W 093°16'0 0.0
2016-Jan-29 08:18N 28°57' W 093°16'0 0.0
2016-Jan-29 07:30N 28°57' W 093°16'0 0.0
2016-Jan-29 06:33N 28°57' W 093°16'0 0.0
2016-Jan-29 05:27N 28°57' W 093°16'0 0.0
2016-Jan-27 11:30N 28°57' W 093°16'  

Dump ship's entire track history